createdAt,value
2023-04-30T00:01:31.310Z,5.60
2023-04-30T00:04:00.923Z,5.53
2023-04-30T00:06:28.724Z,5.68
2023-04-30T00:08:56.536Z,6.10
2023-04-30T00:11:25.628Z,6.07
2023-04-30T00:13:53.577Z,5.70
2023-04-30T00:16:21.421Z,6.15
2023-04-30T00:18:49.253Z,5.70
2023-04-30T00:21:18.400Z,6.10
2023-04-30T00:23:46.189Z,6.10
2023-04-30T00:26:14.031Z,6.22
2023-04-30T00:28:41.800Z,6.38
2023-04-30T00:31:09.567Z,5.90
2023-04-30T00:33:37.390Z,5.78
2023-04-30T00:36:05.984Z,6.40
2023-04-30T00:38:35.152Z,6.13
2023-04-30T00:41:03.214Z,6.18
2023-04-30T00:43:31.542Z,6.30
2023-04-30T00:45:59.487Z,6.40
2023-04-30T00:48:28.044Z,6.38
2023-04-30T00:50:55.846Z,6.40
2023-04-30T00:53:23.620Z,5.88
2023-04-30T00:55:53.928Z,6.18
2023-04-30T00:58:21.949Z,6.22
2023-04-30T01:00:50.725Z,6.85
2023-04-30T01:03:18.745Z,6.38
2023-04-30T01:05:46.624Z,6.22
2023-04-30T01:08:14.634Z,6.35
2023-04-30T01:10:47.224Z,6.60
2023-04-30T01:13:23.765Z,6.45
2023-04-30T01:16:00.313Z,6.30
2023-04-30T01:18:32.456Z,6.47
2023-04-30T01:21:05.626Z,6.50
2023-04-30T01:23:56.263Z,6.78
2023-04-30T01:26:41.217Z,6.82
2023-04-30T01:29:12.978Z,6.80
2023-04-30T01:31:44.435Z,6.72
2023-04-30T01:34:12.273Z,7.25
2023-04-30T01:37:02.028Z,6.78
2023-04-30T01:39:45.031Z,6.70
2023-04-30T01:42:17.445Z,7.03
2023-04-30T01:45:13.904Z,6.95
2023-04-30T01:47:49.644Z,7.38
2023-04-30T01:50:29.795Z,6.60
2023-04-30T01:53:01.175Z,6.70
2023-04-30T01:55:35.905Z,6.85
2023-04-30T01:58:07.849Z,7.10
2023-04-30T02:00:37.100Z,7.00
2023-04-30T02:03:05.138Z,7.40
2023-04-30T02:05:33.259Z,7.45
2023-04-30T02:08:01.060Z,7.40
2023-04-30T02:10:30.488Z,7.28
2023-04-30T02:12:58.671Z,8.02
2023-04-30T02:15:27.350Z,7.40
2023-04-30T02:17:56.496Z,7.30
2023-04-30T02:20:24.378Z,7.47
2023-04-30T02:22:52.391Z,7.13
2023-04-30T02:25:20.321Z,8.23
2023-04-30T02:27:50.414Z,7.40
2023-04-30T02:30:19.748Z,7.32
2023-04-30T02:32:47.885Z,7.60
2023-04-30T02:35:17.264Z,8.00
2023-04-30T02:37:45.054Z,8.57
2023-04-30T02:40:13.737Z,7.65
2023-04-30T02:42:41.609Z,7.60
2023-04-30T02:45:10.212Z,7.87
2023-04-30T02:47:38.003Z,7.72
2023-04-30T02:50:06.743Z,7.73
2023-04-30T02:52:35.843Z,7.60
2023-04-30T02:55:04.222Z,7.93
2023-04-30T02:57:32.046Z,7.55
2023-04-30T03:00:00.383Z,8.50
2023-04-30T03:02:28.325Z,8.20
2023-04-30T03:04:56.128Z,7.75
2023-04-30T03:07:24.457Z,8.63
2023-04-30T03:09:54.051Z,8.53
2023-04-30T03:12:22.074Z,8.67
2023-04-30T03:14:50.020Z,8.90
2023-04-30T03:17:17.801Z,9.10
2023-04-30T03:19:45.626Z,9.50
2023-04-30T03:22:13.396Z,9.10
2023-04-30T03:24:41.477Z,9.07
2023-04-30T03:27:10.900Z,9.00
2023-04-30T03:29:38.644Z,9.93
2023-04-30T03:32:06.530Z,9.07
2023-04-30T03:34:34.279Z,9.15
2023-04-30T03:37:02.416Z,9.55
2023-04-30T03:39:30.292Z,9.63
2023-04-30T03:41:58.120Z,9.77
2023-04-30T03:44:27.256Z,9.77
2023-04-30T03:46:55.033Z,9.30
2023-04-30T03:49:22.821Z,10.40
2023-04-30T03:51:50.625Z,9.50
2023-04-30T03:54:18.428Z,9.98
2023-04-30T03:56:46.387Z,9.32
2023-04-30T03:59:14.402Z,10.07
2023-04-30T04:01:43.574Z,9.63
2023-04-30T04:04:11.551Z,10.20
2023-04-30T04:06:39.812Z,9.25
2023-04-30T04:09:07.743Z,10.10
2023-04-30T04:11:35.629Z,9.68
2023-04-30T04:14:03.408Z,9.90
2023-04-30T04:16:31.214Z,9.70
2023-04-30T04:19:01.213Z,10.40
2023-04-30T04:21:28.971Z,10.25
2023-04-30T04:23:56.722Z,10.60
2023-04-30T04:26:25.952Z,10.50
2023-04-30T04:28:53.867Z,10.48
2023-04-30T04:31:22.728Z,9.73
2023-04-30T04:33:51.340Z,9.73
2023-04-30T04:36:20.448Z,9.82
2023-04-30T04:38:48.920Z,10.20
2023-04-30T04:41:16.812Z,10.13
2023-04-30T04:43:44.593Z,10.00
2023-04-30T04:46:14.249Z,9.93
2023-04-30T04:48:42.237Z,9.40
2023-04-30T04:51:10.891Z,10.20
2023-04-30T04:53:40.001Z,10.07
2023-04-30T04:56:08.354Z,9.52
2023-04-30T04:58:36.306Z,9.73
2023-04-30T05:01:05.002Z,10.38
2023-04-30T05:03:33.219Z,10.00
2023-04-30T05:06:01.190Z,10.20
2023-04-30T05:08:28.967Z,9.65
2023-04-30T05:10:58.255Z,9.97
2023-04-30T05:13:26.277Z,10.30
2023-04-30T05:15:55.397Z,10.10
2023-04-30T05:18:23.377Z,9.82
2023-04-30T05:20:51.243Z,10.40
2023-04-30T05:23:19.078Z,10.15
2023-04-30T05:25:46.876Z,10.13
2023-04-30T05:28:16.029Z,10.25
2023-04-30T05:30:43.804Z,9.38
2023-04-30T05:33:11.865Z,10.23
2023-04-30T05:35:39.722Z,10.20
2023-04-30T05:38:07.519Z,9.68
2023-04-30T05:40:35.337Z,9.73
2023-04-30T05:43:03.133Z,10.18
2023-04-30T05:45:32.375Z,9.73
2023-04-30T05:48:01.918Z,9.77
2023-04-30T05:50:29.778Z,9.80
2023-04-30T05:52:57.592Z,9.48
2023-04-30T05:55:25.386Z,9.73
2023-04-30T05:57:53.197Z,9.30
2023-04-30T06:00:21.061Z,9.88
2023-04-30T06:02:50.490Z,10.05
2023-04-30T06:05:18.347Z,9.40
2023-04-30T06:07:46.200Z,9.20
2023-04-30T06:10:14.150Z,8.77
2023-04-30T06:12:42.068Z,9.15
2023-04-30T06:15:10.391Z,9.60
2023-04-30T06:17:38.241Z,8.83
2023-04-30T06:20:09.008Z,9.38
2023-04-30T06:22:36.887Z,9.23
2023-04-30T06:25:05.246Z,8.73
2023-04-30T06:27:33.144Z,8.80
2023-04-30T06:30:01.146Z,9.10
2023-04-30T06:32:29.049Z,8.98
2023-04-30T06:34:56.836Z,8.20
2023-04-30T06:37:25.992Z,8.40
2023-04-30T06:39:54.158Z,8.23
2023-04-30T06:42:22.114Z,8.75
2023-04-30T06:44:49.872Z,8.35
2023-04-30T06:47:17.967Z,8.45
2023-04-30T06:49:45.730Z,8.32
2023-04-30T06:52:13.489Z,8.02
2023-04-30T06:54:43.780Z,8.60
2023-04-30T06:57:12.237Z,8.30
2023-04-30T06:59:40.295Z,8.10
2023-04-30T07:02:08.161Z,7.80
2023-04-30T07:04:35.955Z,8.20
2023-04-30T07:07:04.330Z,7.77
2023-04-30T07:09:32.181Z,7.47
2023-04-30T07:12:01.537Z,7.30
2023-04-30T07:14:29.344Z,7.43
2023-04-30T07:16:57.237Z,8.15
2023-04-30T07:19:26.860Z,7.32
2023-04-30T07:21:54.665Z,7.40
2023-04-30T07:24:22.480Z,7.53
2023-04-30T07:26:50.267Z,7.18
2023-04-30T07:29:19.360Z,7.35
2023-04-30T07:31:47.396Z,7.32
2023-04-30T07:34:15.201Z,6.73
2023-04-30T07:36:42.972Z,6.97
2023-04-30T07:39:11.661Z,7.10
2023-04-30T07:41:39.494Z,7.90
2023-04-30T07:44:07.277Z,7.38
2023-04-30T07:46:36.588Z,7.38
2023-04-30T07:49:04.962Z,7.38
2023-04-30T07:51:33.864Z,7.27
2023-04-30T07:54:01.700Z,7.57
2023-04-30T07:56:29.515Z,7.90
2023-04-30T07:58:57.309Z,7.88
2023-04-30T08:01:25.353Z,7.68
2023-04-30T08:03:54.606Z,8.35
2023-04-30T08:06:22.709Z,7.68
2023-04-30T08:08:50.663Z,7.82
2023-04-30T08:11:18.449Z,7.47
2023-04-30T08:13:46.529Z,6.82
2023-04-30T08:16:14.408Z,6.97
2023-04-30T08:18:44.761Z,7.07
2023-04-30T08:21:14.143Z,6.80
2023-04-30T08:23:41.946Z,7.40
2023-04-30T08:26:09.726Z,7.45
2023-04-30T08:28:37.567Z,7.55
2023-04-30T08:31:05.723Z,7.60
2023-04-30T08:33:33.528Z,7.55
2023-04-30T08:36:01.505Z,8.20
2023-04-30T08:38:30.887Z,8.05
2023-04-30T08:41:13.109Z,8.15
2023-04-30T08:43:41.447Z,8.48
2023-04-30T08:46:09.553Z,8.02
2023-04-30T08:48:37.423Z,8.45
2023-04-30T08:51:05.858Z,7.68
2023-04-30T08:53:36.887Z,7.32
2023-04-30T08:56:05.183Z,7.20
2023-04-30T08:58:33.434Z,6.50
2023-04-30T09:01:02.229Z,6.40
2023-04-30T09:03:31.717Z,6.50
2023-04-30T09:05:59.589Z,6.40
2023-04-30T09:11:24.025Z,5.43
2023-04-30T09:13:53.576Z,6.32
2023-04-30T09:16:21.983Z,5.20
2023-04-30T09:18:50.554Z,6.13
2023-04-30T09:21:18.935Z,5.28
2023-04-30T09:23:56.825Z,5.28
2023-04-30T09:26:32.969Z,4.85
2023-04-30T09:29:07.494Z,4.80
2023-04-30T09:31:35.881Z,4.60
2023-04-30T09:34:04.326Z,4.07
2023-04-30T09:36:32.597Z,4.87
2023-04-30T09:39:10.298Z,5.20
2023-04-30T09:41:40.893Z,4.60
2023-04-30T09:44:08.656Z,4.40
2023-04-30T09:46:38.357Z,4.40
2023-04-30T09:49:07.210Z,4.45
2023-04-30T09:51:35.605Z,4.30
2023-04-30T09:54:04.732Z,4.70
2023-04-30T09:56:36.903Z,4.47
2023-04-30T09:59:06.752Z,4.40
2023-04-30T10:01:38.495Z,4.80
2023-04-30T10:04:08.737Z,5.50
2023-04-30T10:06:37.218Z,5.25
2023-04-30T10:09:07.943Z,5.37
2023-04-30T10:11:38.660Z,5.10
2023-04-30T10:14:13.007Z,5.22
2023-04-30T10:16:48.092Z,5.30
2023-04-30T10:19:20.629Z,5.80
2023-04-30T10:21:49.084Z,5.60
2023-04-30T10:24:19.308Z,5.35
2023-04-30T10:26:47.981Z,5.80
2023-04-30T10:29:18.495Z,4.90
2023-04-30T10:31:48.259Z,4.82
2023-04-30T10:34:22.674Z,4.82
2023-04-30T10:36:57.530Z,4.68
2023-04-30T10:39:29.152Z,4.95
2023-04-30T10:42:03.429Z,4.83
2023-04-30T10:44:35.344Z,4.65
2023-04-30T10:47:04.376Z,4.50
2023-04-30T10:49:32.720Z,3.90
2023-04-30T10:52:01.946Z,4.05
2023-04-30T10:54:31.820Z,3.60
2023-04-30T10:57:12.251Z,3.67
2023-04-30T10:59:45.012Z,4.10
2023-04-30T11:02:13.880Z,3.60
2023-04-30T11:05:10.520Z,3.80
2023-04-30T11:07:39.022Z,3.70
2023-04-30T11:10:09.878Z,3.83
2023-04-30T11:12:42.563Z,3.97
2023-04-30T11:15:18.238Z,4.15
2023-04-30T11:17:47.607Z,3.90
2023-04-30T11:20:19.949Z,3.75
2023-04-30T11:22:47.841Z,3.83
2023-04-30T11:25:20.567Z,3.30
2023-04-30T11:27:48.402Z,3.70
2023-04-30T11:30:18.779Z,3.80
2023-04-30T11:32:48.366Z,3.40
2023-04-30T11:35:19.871Z,3.60
2023-04-30T11:37:49.229Z,3.08
2023-04-30T11:40:17.018Z,2.92
2023-04-30T11:42:46.593Z,3.10
2023-04-30T11:45:20.600Z,3.30
2023-04-30T11:47:50.411Z,3.20
2023-04-30T11:50:21.247Z,3.45
2023-04-30T11:52:51.077Z,3.45
2023-04-30T11:55:21.607Z,3.40
2023-04-30T11:57:51.471Z,3.20
2023-04-30T12:00:23.251Z,3.40
2023-04-30T12:02:51.573Z,3.20
2023-04-30T12:05:20.832Z,3.20
2023-04-30T12:07:49.977Z,3.27
2023-04-30T12:10:19.485Z,2.90
2023-04-30T12:12:50.523Z,3.28
2023-04-30T12:15:26.364Z,3.17
2023-04-30T12:17:55.959Z,3.73
2023-04-30T12:20:25.898Z,3.65
2023-04-30T12:22:53.827Z,3.22
2023-04-30T12:25:23.264Z,2.92
2023-04-30T12:27:53.277Z,3.60
2023-04-30T12:30:24.726Z,3.50
2023-04-30T12:32:54.561Z,3.50
2023-04-30T12:35:23.700Z,3.50
2023-04-30T12:37:53.636Z,3.47
2023-04-30T12:40:23.121Z,3.53
2023-04-30T12:42:51.518Z,3.50
2023-04-30T12:45:46.633Z,4.10
2023-04-30T12:48:16.000Z,3.88
2023-04-30T12:50:48.150Z,3.35
2023-04-30T12:53:16.206Z,3.55
2023-04-30T12:55:43.966Z,3.35
2023-04-30T12:58:14.402Z,3.33
2023-04-30T13:00:51.443Z,2.93
2023-04-30T13:03:20.946Z,3.20
2023-04-30T13:05:50.235Z,3.33
2023-04-30T13:08:18.595Z,3.10
2023-04-30T13:10:47.152Z,3.30
2023-04-30T13:13:16.374Z,3.47
2023-04-30T13:15:44.627Z,3.20
2023-04-30T13:18:15.767Z,3.00
2023-04-30T13:20:44.575Z,3.20
2023-04-30T13:23:12.841Z,3.10
2023-04-30T13:25:41.668Z,3.28
2023-04-30T13:28:09.483Z,3.15
2023-04-30T13:30:37.445Z,3.15
2023-04-30T13:33:05.444Z,3.40
2023-04-30T13:35:34.630Z,3.10
2023-04-30T13:38:02.489Z,3.58
2023-04-30T13:40:30.275Z,2.97
2023-04-30T13:42:58.072Z,2.67
2023-04-30T13:45:26.106Z,2.90
2023-04-30T13:47:54.550Z,2.70
2023-04-30T13:50:22.344Z,2.70
2023-04-30T13:52:51.464Z,2.70
2023-04-30T13:55:19.326Z,2.58
2023-04-30T13:57:47.103Z,2.75
2023-04-30T14:00:16.518Z,2.80
2023-04-30T14:02:44.357Z,2.50
2023-04-30T14:05:12.174Z,2.50
2023-04-30T14:07:39.898Z,2.58
2023-04-30T14:10:10.169Z,2.40
2023-04-30T14:12:38.372Z,2.67
2023-04-30T14:15:06.979Z,2.73
2023-04-30T14:17:35.668Z,2.40
2023-04-30T14:20:03.782Z,2.50
2023-04-30T14:22:34.404Z,2.63
2023-04-30T14:25:02.209Z,2.63
2023-04-30T14:27:31.622Z,2.70
2023-04-30T14:29:59.546Z,2.53
2023-04-30T14:32:27.991Z,2.58
2023-04-30T14:34:55.851Z,2.42
2023-04-30T14:37:23.727Z,2.63
2023-04-30T14:39:51.538Z,2.90
2023-04-30T14:42:19.329Z,2.80
2023-04-30T14:44:48.414Z,2.70
2023-04-30T14:47:16.300Z,2.63
2023-04-30T14:49:44.052Z,2.90
2023-04-30T14:52:11.860Z,2.80
2023-04-30T14:54:39.748Z,2.53
2023-04-30T14:57:08.512Z,2.70
2023-04-30T14:59:36.899Z,2.90
2023-04-30T15:02:06.279Z,2.90
2023-04-30T15:04:34.118Z,2.97
2023-04-30T15:07:02.516Z,2.80
2023-04-30T15:09:30.532Z,3.25
2023-04-30T15:11:58.291Z,2.90
2023-04-30T15:14:26.061Z,2.70
2023-04-30T15:16:53.956Z,2.90
2023-04-30T15:19:23.174Z,2.60
2023-04-30T15:21:51.151Z,3.00
2023-04-30T15:24:19.232Z,2.78
2023-04-30T15:26:47.016Z,2.70
2023-04-30T15:29:14.913Z,3.10
2023-04-30T15:31:42.787Z,2.70
2023-04-30T15:34:10.577Z,2.90
2023-04-30T15:36:40.104Z,3.00
2023-04-30T15:39:08.306Z,2.75
2023-04-30T15:41:36.043Z,2.95
2023-04-30T15:44:03.818Z,2.78
2023-04-30T15:46:32.513Z,3.10
2023-04-30T15:49:00.948Z,2.90
2023-04-30T15:51:29.454Z,3.03
2023-04-30T15:53:58.697Z,3.00
2023-04-30T15:56:26.683Z,3.13
2023-04-30T15:58:54.707Z,3.25
2023-04-30T16:01:23.627Z,3.25
2023-04-30T16:03:52.067Z,3.30
2023-04-30T16:06:20.707Z,3.30
2023-04-30T16:08:49.873Z,3.30
2023-04-30T16:11:19.653Z,4.00
2023-04-30T16:13:48.129Z,27.35
2023-04-30T16:16:16.582Z,3.03
2023-04-30T16:18:45.019Z,2.83
2023-04-30T16:21:12.990Z,7.80
2023-04-30T16:23:41.266Z,4.68
2023-04-30T16:26:09.781Z,3.67
2023-04-30T16:28:38.953Z,3.10
2023-04-30T16:31:06.963Z,3.00
2023-04-30T16:33:34.865Z,3.20
2023-04-30T16:36:02.634Z,9.68
2023-04-30T16:38:30.508Z,3.28
2023-04-30T16:40:58.345Z,2.75
2023-04-30T16:43:26.289Z,2.60
2023-04-30T16:45:55.474Z,2.80
2023-04-30T16:48:23.360Z,3.20
2023-04-30T16:50:51.467Z,7.23
2023-04-30T16:53:19.414Z,34.90
2023-04-30T16:55:47.302Z,3.25
2023-04-30T16:58:15.649Z,3.47
2023-04-30T17:00:43.730Z,3.13
2023-04-30T17:03:13.072Z,3.67
2023-04-30T17:05:41.093Z,3.70
2023-04-30T17:08:09.016Z,3.40
2023-04-30T17:10:36.824Z,4.20
2023-04-30T17:13:05.511Z,3.92
2023-04-30T17:15:33.388Z,3.38
2023-04-30T17:18:01.316Z,3.50
2023-04-30T17:20:30.519Z,3.35
2023-04-30T17:22:59.100Z,3.80
2023-04-30T17:25:27.556Z,9.63
2023-04-30T17:27:55.360Z,8.63
2023-04-30T17:30:23.280Z,3.63
2023-04-30T17:32:51.157Z,3.30
2023-04-30T17:35:19.224Z,3.40
2023-04-30T17:37:48.380Z,3.42
2023-04-30T17:40:16.340Z,3.30
2023-04-30T17:42:44.172Z,3.10
2023-04-30T17:45:12.632Z,3.17
2023-04-30T17:47:40.648Z,3.30
2023-04-30T17:50:10.144Z,3.30
2023-04-30T17:52:38.746Z,4.60
2023-04-30T17:55:09.536Z,3.50
2023-04-30T17:57:37.795Z,3.42
2023-04-30T18:00:07.088Z,3.20
2023-04-30T18:02:35.069Z,3.97
2023-04-30T18:05:03.022Z,3.78
2023-04-30T18:07:30.853Z,3.60
2023-04-30T18:09:59.055Z,3.90
2023-04-30T18:12:28.654Z,4.40
2023-04-30T18:14:56.441Z,3.90
2023-04-30T18:17:24.327Z,5.27
2023-04-30T18:19:52.208Z,9.82
2023-04-30T18:22:20.085Z,4.20
2023-04-30T18:24:48.103Z,4.10
2023-04-30T18:27:15.905Z,4.40
2023-04-30T18:29:45.168Z,3.85
2023-04-30T18:32:13.334Z,4.43
2023-04-30T18:34:41.303Z,4.05
2023-04-30T18:37:09.425Z,5.00
2023-04-30T18:39:37.214Z,4.40
2023-04-30T18:42:05.111Z,4.37
2023-04-30T18:44:33.302Z,4.27
2023-04-30T18:47:03.004Z,3.90
2023-04-30T18:49:30.801Z,4.18
2023-04-30T18:52:00.368Z,3.80
2023-04-30T18:54:28.226Z,3.65
2023-04-30T18:56:56.211Z,4.18
2023-04-30T18:59:24.006Z,4.03
2023-04-30T19:01:51.794Z,4.00
2023-04-30T19:04:20.967Z,3.50
2023-04-30T19:06:49.801Z,3.67
2023-04-30T19:09:17.797Z,3.60
2023-04-30T19:11:45.651Z,3.50
2023-04-30T19:14:13.420Z,3.58
2023-04-30T19:16:41.267Z,3.33
2023-04-30T19:19:09.084Z,3.60
2023-04-30T19:21:38.333Z,3.30
2023-04-30T19:24:06.396Z,3.67
2023-04-30T19:26:35.838Z,3.88
2023-04-30T19:29:03.971Z,3.85
2023-04-30T19:31:31.875Z,3.50
2023-04-30T19:34:00.950Z,3.88
2023-04-30T19:36:29.253Z,3.70
2023-04-30T19:38:58.587Z,3.72
2023-04-30T19:41:27.114Z,3.45
2023-04-30T19:43:55.774Z,3.50
2023-04-30T19:46:23.656Z,3.80
2023-04-30T19:48:51.432Z,3.63
2023-04-30T19:51:19.305Z,4.18
2023-04-30T19:53:47.197Z,3.90
2023-04-30T19:56:16.352Z,3.70
2023-04-30T19:58:44.881Z,4.03
2023-04-30T20:01:12.871Z,3.53
2023-04-30T20:03:42.721Z,3.38
2023-04-30T20:06:10.968Z,3.75
2023-04-30T20:08:38.767Z,3.83
2023-04-30T20:11:06.896Z,3.97
2023-04-30T20:13:36.379Z,6.43
2023-04-30T20:16:04.369Z,4.45
2023-04-30T20:18:32.234Z,4.27
2023-04-30T20:21:00.059Z,4.05
2023-04-30T20:23:27.942Z,3.95
2023-04-30T20:25:55.756Z,3.75
2023-04-30T20:28:23.580Z,4.30
2023-04-30T20:30:52.728Z,4.07
2023-04-30T20:33:20.581Z,4.17
2023-04-30T20:35:48.496Z,3.92
2023-04-30T20:38:19.619Z,4.03
2023-04-30T20:40:47.718Z,3.80
2023-04-30T20:43:15.800Z,4.20
2023-04-30T20:45:45.456Z,4.05
2023-04-30T20:48:15.195Z,4.20
2023-04-30T20:50:43.138Z,4.43
2023-04-30T20:53:11.585Z,4.00
2023-04-30T20:55:39.462Z,4.03
2023-04-30T20:58:08.846Z,3.75
2023-04-30T21:00:36.667Z,3.90
2023-04-30T21:03:05.366Z,4.25
2023-04-30T21:05:34.582Z,4.18
2023-04-30T21:08:02.453Z,4.57
2023-04-30T21:10:36.097Z,4.00
2023-04-30T21:13:05.297Z,4.22
2023-04-30T21:15:33.978Z,4.68
2023-04-30T21:18:01.926Z,4.28
2023-04-30T21:20:31.163Z,4.45
2023-04-30T21:23:00.454Z,4.28
2023-04-30T21:25:28.424Z,4.00
2023-04-30T21:27:56.257Z,4.20
2023-04-30T21:30:26.270Z,4.47
2023-04-30T21:32:58.130Z,4.50
2023-04-30T21:35:27.496Z,4.45
2023-04-30T21:37:55.348Z,4.05
2023-04-30T21:40:24.609Z,4.15
2023-04-30T21:42:52.793Z,4.20
2023-04-30T21:45:20.829Z,4.20
2023-04-30T21:47:48.977Z,4.15
2023-04-30T21:50:16.900Z,4.10
2023-04-30T21:52:44.698Z,4.53
2023-04-30T21:55:12.578Z,4.17
2023-04-30T21:57:41.676Z,4.25
2023-04-30T22:00:14.190Z,3.83
2023-04-30T22:02:42.340Z,4.25
2023-04-30T22:05:11.383Z,4.23
2023-04-30T22:07:39.213Z,4.32
2023-04-30T22:10:08.106Z,4.32
2023-04-30T22:12:36.033Z,3.95
2023-04-30T22:15:06.397Z,4.15
2023-04-30T22:17:34.718Z,4.22
2023-04-30T22:20:02.613Z,4.10
2023-04-30T22:22:30.451Z,3.95
2023-04-30T22:24:58.226Z,4.53
2023-04-30T22:27:26.034Z,4.18
2023-04-30T22:29:54.096Z,4.10
2023-04-30T22:32:23.558Z,4.38
2023-04-30T22:34:51.363Z,3.80
2023-04-30T22:37:19.126Z,4.07
2023-04-30T22:39:48.272Z,4.57
2023-04-30T22:42:16.809Z,4.50
2023-04-30T22:44:45.835Z,4.18
2023-04-30T22:47:13.901Z,4.40
2023-04-30T22:49:43.257Z,4.10
2023-04-30T22:52:11.649Z,4.20
2023-04-30T22:54:40.306Z,4.40
2023-04-30T22:57:08.114Z,4.13
2023-04-30T22:59:35.945Z,4.20
2023-04-30T23:02:03.787Z,3.93
2023-04-30T23:04:32.271Z,4.30
2023-04-30T23:07:01.783Z,4.38
2023-04-30T23:09:29.619Z,3.78
2023-04-30T23:11:57.376Z,4.13
2023-04-30T23:14:25.770Z,4.10
2023-04-30T23:16:53.644Z,3.95
2023-04-30T23:19:21.448Z,4.10
2023-04-30T23:21:49.278Z,4.00
2023-04-30T23:24:18.431Z,4.07
2023-04-30T23:26:47.079Z,4.50
2023-04-30T23:29:15.531Z,4.13
2023-04-30T23:31:43.317Z,4.60
2023-04-30T23:34:12.385Z,4.35
2023-04-30T23:36:40.183Z,4.37
2023-04-30T23:39:08.094Z,4.22
2023-04-30T23:41:37.208Z,4.28
2023-04-30T23:44:05.272Z,4.13
2023-04-30T23:46:33.210Z,4.60
2023-04-30T23:49:01.026Z,4.70
2023-04-30T23:51:28.792Z,4.53
2023-04-30T23:53:56.531Z,4.93
2023-04-30T23:56:24.297Z,4.82
2023-04-30T23:58:53.497Z,4.60
